Time;durP1;ratioP1;P1;durP2;ratioP2;P2;SDS_P1;SDS_P2;PMS_P1;PMS_P2;Temp;Humidity;BMP_temperature;BMP_pressure;BME280_temperature;BME280_humidity;BME280_pressure;Samples;Min_cycle;Max_cycle;Signal;HPM_P1;HPM_P2
2021/06/22 04:51:20;;;;;;;22.05;9.52;;;;;;;21.41;76.72;99316.38;5169261;27;20337;-75
2021/06/22 04:53:45;;;;;;;24.80;10.23;;;;;;;21.53;76.72;99324.31;5169220;27;20042;-70
2021/06/22 04:56:12;;;;;;;23.95;9.52;;;;;;;21.70;76.62;99323.31;5172876;27;36777;-72
2021/06/22 04:58:37;;;;;;;20.23;10.25;;;;;;;21.81;76.02;99324.97;5173950;27;20034;-68
2021/06/22 05:01:06;;;;;;;26.00;10.45;;;;;;;21.87;75.52;99329.34;5173319;27;23355;-72
2021/06/22 05:03:32;;;;;;;17.70;10.73;;;;;;;21.97;75.75;99331.25;5172905;27;20060;-68
2021/06/22 05:05:58;;;;;;;17.27;9.73;;;;;;;22.07;75.51;99338.59;5173259;27;20038;-67
2021/06/22 05:08:24;;;;;;;24.10;11.52;;;;;;;22.19;75.54;99331.03;5174195;27;20031;-70
2021/06/22 05:10:49;;;;;;;21.67;11.05;;;;;;;22.31;75.11;99333.50;5153813;27;32133;-69
2021/06/22 05:13:14;;;;;;;24.65;11.80;;;;;;;22.43;74.96;99336.81;5173113;27;31587;-70
2021/06/22 05:15:40;;;;;;;19.10;11.10;;;;;;;22.57;75.08;99341.72;5172907;27;23085;-67
2021/06/22 05:18:05;;;;;;;20.85;10.63;;;;;;;22.68;74.61;99332.47;5151610;27;35624;-67
2021/06/22 05:20:31;;;;;;;19.88;10.57;;;;;;;22.80;74.52;99334.94;5152705;27;20030;-67
2021/06/22 05:22:56;;;;;;;27.05;12.70;;;;;;;22.98;74.92;99331.63;5151086;27;23135;-67
2021/06/22 05:25:21;;;;;;;24.92;11.40;;;;;;;23.13;74.23;99330.03;5156009;27;27726;-67
2021/06/22 05:27:47;;;;;;;22.90;12.93;;;;;;;23.25;73.91;99322.41;5156579;27;24004;-72
2021/06/22 05:30:13;;;;;;;24.65;13.13;;;;;;;23.42;73.94;99321.25;5152524;27;20424;-66
2021/06/22 05:32:38;;;;;;;26.30;12.80;;;;;;;23.60;73.17;99328.78;5152444;27;20019;-68
2021/06/22 05:35:04;;;;;;;21.13;13.05;;;;;;;23.71;72.91;99335.00;5152870;27;20030;-69
2021/06/22 05:37:29;;;;;;;24.48;13.00;;;;;;;23.82;71.96;99339.31;5152612;27;20038;-70
2021/06/22 05:39:55;;;;;;;19.35;13.02;;;;;;;23.95;71.75;99340.63;5152376;27;20031;-67
2021/06/22 05:42:20;;;;;;;21.17;11.82;;;;;;;24.15;71.97;99341.63;5150326;27;39536;-68
2021/06/22 05:44:45;;;;;;;20.98;11.20;;;;;;;24.37;71.29;99349.34;5150188;27;26584;-66
2021/06/22 05:47:11;;;;;;;24.55;12.43;;;;;;;24.59;71.00;99340.78;5151892;27;20164;-68
2021/06/22 05:49:36;;;;;;;21.73;12.60;;;;;;;24.83;70.41;99354.50;5151977;27;20499;-68
2021/06/22 05:52:03;;;;;;;22.05;13.80;;;;;;;25.06;69.96;99354.03;5155490;27;20027;-69
2021/06/22 05:54:28;;;;;;;19.88;13.10;;;;;;;25.14;68.92;99358.88;5161460;27;20039;-68
2021/06/22 05:56:54;;;;;;;21.38;13.10;;;;;;;25.29;69.01;99352.44;5154050;27;36777;-67
2021/06/22 05:59:19;;;;;;;24.65;14.20;;;;;;;25.36;67.94;99352.09;5152026;27;22865;-71
2021/06/22 06:01:44;;;;;;;22.27;13.85;;;;;;;25.34;67.55;99350.50;5143280;27;25400;-71
2021/06/22 06:04:10;;;;;;;20.98;13.13;;;;;;;25.50;68.23;99355.78;5137494;27;28674;-71
2021/06/22 06:06:35;;;;;;;20.40;13.65;;;;;;;25.77;68.27;99351.66;5136509;27;30943;-75
2021/06/22 06:09:01;;;;;;;22.20;14.15;;;;;;;26.04;67.55;99347.50;5137770;27;20379;-71
2021/06/22 06:11:26;;;;;;;24.58;15.43;;;;;;;26.19;66.65;99352.78;5138404;27;20460;-69
2021/06/22 06:13:51;;;;;;;16.90;13.15;;;;;;;26.36;66.38;99352.25;5136517;27;20031;-68
2021/06/22 06:16:17;;;;;;;26.25;14.23;;;;;;;26.57;66.25;99355.47;5137311;27;37011;-68
2021/06/22 06:18:42;;;;;;;20.92;13.63;;;;;;;26.67;64.85;99351.78;5137912;27;20073;-71
2021/06/22 06:21:08;;;;;;;20.88;12.60;;;;;;;26.76;64.49;99357.38;5145040;27;20036;-71
2021/06/22 06:23:39;;;;;;;24.13;14.52;;;;;;;26.78;63.90;99353.25;5139548;27;20032;-69
2021/06/22 06:26:05;;;;;;;18.98;12.85;;;;;;;26.78;63.81;99360.66;5137919;27;20031;-70
2021/06/22 06:28:37;;;;;;;20.00;12.95;;;;;;;26.85;63.79;99367.34;5138162;27;20030;-73
2021/06/22 06:31:03;;;;;;;17.40;12.65;;;;;;;26.87;63.45;99358.84;5137727;27;20080;-71
2021/06/22 06:33:28;;;;;;;18.45;13.40;;;;;;;26.91;62.54;99350.84;5136997;27;33488;-72
2021/06/22 06:35:54;;;;;;;20.15;13.73;;;;;;;26.85;62.53;99341.94;5135922;27;33689;-70
2021/06/22 06:38:20;;;;;;;19.20;13.65;;;;;;;26.74;60.79;99340.50;5137526;27;20039;-69
2021/06/22 06:40:45;;;;;;;22.30;13.85;;;;;;;26.68;61.56;99350.66;5137524;27;20035;-70
2021/06/22 06:43:11;;;;;;;19.23;13.63;;;;;;;26.73;62.01;99355.25;5137057;27;39653;-69
2021/06/22 06:45:36;;;;;;;18.13;13.27;;;;;;;26.80;61.51;99345.56;5124998;27;20042;-64
2021/06/22 06:48:02;;;;;;;22.95;13.73;;;;;;;26.81;60.87;99349.13;5117217;27;20077;-70
2021/06/22 06:50:27;;;;;;;18.40;13.73;;;;;;;26.77;60.71;99339.91;5116019;27;20040;-69
2021/06/22 06:52:52;;;;;;;17.92;14.52;;;;;;;26.84;60.93;99340.31;5117011;28;20026;-65
2021/06/22 06:55:27;;;;;;;19.63;13.93;;;;;;;27.03;61.63;99348.44;5118460;27;20028;-67
2021/06/22 06:58:00;;;;;;;18.73;13.55;;;;;;;27.32;61.35;99342.72;5136852;27;20031;-68
2021/06/22 07:00:28;;;;;;;18.63;13.80;;;;;;;27.72;61.57;99339.53;5136987;27;20035;-63
2021/06/22 07:02:53;;;;;;;16.60;13.55;;;;;;;28.01;60.52;99347.41;5135787;27;20035;-66
2021/06/22 07:05:19;;;;;;;21.02;14.20;;;;;;;28.28;60.01;99348.44;5137448;27;20032;-65
2021/06/22 07:07:45;;;;;;;21.88;13.88;;;;;;;28.53;59.11;99335.28;5136709;27;20031;-66
2021/06/22 07:10:11;;;;;;;18.92;14.15;;;;;;;28.77;59.50;99342.38;5134449;27;42175;-66
2021/06/22 07:12:36;;;;;;;17.38;13.55;;;;;;;29.07;59.05;99354.47;5136028;27;20027;-66
2021/06/22 07:15:01;;;;;;;17.75;13.45;;;;;;;29.38;58.50;99368.22;5136096;27;39336;-65
2021/06/22 07:17:27;;;;;;;15.43;13.20;;;;;;;29.57;57.09;99375.41;5136368;27;37294;-66
2021/06/22 07:19:52;;;;;;;23.15;13.52;;;;;;;29.60;55.93;99391.22;5136706;27;20028;-68
2021/06/22 07:22:17;;;;;;;15.85;13.90;;;;;;;29.55;55.24;99396.84;5136423;27;33788;-67
2021/06/22 07:24:43;;;;;;;18.48;13.55;;;;;;;29.43;54.45;99396.63;5136165;27;35265;-66
2021/06/22 07:27:08;;;;;;;19.90;14.43;;;;;;;29.30;55.20;99415.63;5134218;27;32960;-71
2021/06/22 07:29:33;;;;;;;18.15;13.20;;;;;;;29.23;54.29;99414.44;5134673;27;32279;-69
2021/06/22 07:31:59;;;;;;;17.42;14.20;;;;;;;29.04;53.83;99416.25;5135688;27;39268;-72
2021/06/22 07:34:24;;;;;;;17.05;13.70;;;;;;;28.81;53.26;99425.59;5134752;27;20528;-61
2021/06/22 07:36:50;;;;;;;21.75;14.32;;;;;;;28.64;53.80;99424.34;5136744;27;20024;-61
2021/06/22 07:39:15;;;;;;;17.20;13.40;;;;;;;28.70;54.62;99422.28;5136235;27;24299;-61
2021/06/22 07:41:40;;;;;;;16.88;13.13;;;;;;;28.85;54.62;99432.06;5136102;27;31224;-62
2021/06/22 07:44:06;;;;;;;15.40;13.05;;;;;;;28.87;54.60;99424.38;5136526;27;20038;-64
2021/06/22 07:46:31;;;;;;;19.13;13.32;;;;;;;28.94;54.44;99427.47;5136711;27;20054;-62
2021/06/22 07:48:57;;;;;;;16.35;12.90;;;;;;;28.95;53.25;99423.63;5136297;27;20081;-61
2021/06/22 07:51:22;;;;;;;16.90;12.05;;;;;;;29.09;54.20;99418.06;5136413;27;21784;-66
2021/06/22 07:53:48;;;;;;;20.95;12.80;;;;;;;29.19;53.98;99411.50;5136198;27;23615;-65
2021/06/22 07:56:13;;;;;;;17.63;12.65;;;;;;;29.41;54.02;99409.88;5136096;27;20027;-61
2021/06/22 07:58:38;;;;;;;17.60;13.50;;;;;;;29.76;54.34;99402.59;5134988;27;20065;-66
2021/06/22 08:01:04;;;;;;;14.60;12.75;;;;;;;30.00;53.25;99421.41;5135821;27;29814;-66
2021/06/22 08:03:29;;;;;;;16.70;13.27;;;;;;;29.95;51.44;99431.72;5136475;27;22455;-62
2021/06/22 08:05:55;;;;;;;15.55;12.85;;;;;;;29.82;51.63;99447.97;5136391;27;20638;-60
2021/06/22 08:08:22;;;;;;;15.88;12.05;;;;;;;30.19;53.19;99450.53;5134997;27;20459;-63
2021/06/22 08:10:59;;;;;;;18.58;11.93;;;;;;;30.48;51.60;99451.88;5135844;27;20038;-61
2021/06/22 08:13:24;;;;;;;17.10;11.93;;;;;;;30.80;51.94;99449.81;5136540;27;20494;-66
2021/06/22 08:15:50;;;;;;;15.40;11.57;;;;;;;31.09;51.39;99454.66;5135845;27;20030;-73
2021/06/22 08:18:16;;;;;;;17.48;11.05;;;;;;;31.37;49.91;99459.75;5120852;27;20437;-62
2021/06/22 08:20:41;;;;;;;14.20;11.13;;;;;;;31.41;48.81;99459.94;5144203;27;20335;-61
2021/06/22 08:23:07;;;;;;;16.23;11.10;;;;;;;31.27;48.23;99455.44;5145923;27;35630;-65
2021/06/22 08:25:33;;;;;;;14.98;11.00;;;;;;;31.26;48.45;99458.50;5152336;27;20073;-61
2021/06/22 08:27:58;;;;;;;11.63;9.98;;;;;;;31.18;48.30;99458.22;5135647;27;20031;-62
2021/06/22 08:30:26;;;;;;;12.85;10.32;;;;;;;31.08;47.54;99455.00;5134884;27;20106;-66
2021/06/22 08:32:51;;;;;;;10.98;7.55;;;;;;;30.66;45.91;99456.28;5135736;27;20028;-63
2021/06/22 08:35:17;;;;;;;9.00;6.88;;;;;;;30.02;45.58;99454.06;5135869;27;20471;-64
2021/06/22 08:37:42;;;;;;;10.48;6.35;;;;;;;29.40;46.74;99452.13;5117688;27;20054;-66
2021/06/22 08:40:08;;;;;;;12.68;6.65;;;;;;;29.04;47.58;99462.84;5134457;27;20058;-64
2021/06/22 08:42:35;;;;;;;11.32;6.75;;;;;;;28.77;47.72;99449.25;5135593;27;20499;-66
2021/06/22 08:45:01;;;;;;;9.38;5.97;;;;;;;28.57;48.45;99445.84;5135748;27;20027;-65
2021/06/22 08:47:27;;;;;;;7.45;6.10;;;;;;;28.49;48.80;99447.38;5115901;27;34530;-67
2021/06/22 08:49:53;;;;;;;12.30;6.68;;;;;;;28.33;49.11;99448.84;5131267;27;20092;-66
2021/06/22 08:52:23;;;;;;;11.23;6.32;;;;;;;28.24;49.18;99462.47;5135427;27;20039;-65
2021/06/22 08:54:49;;;;;;;9.30;6.00;;;;;;;28.08;49.40;99461.16;5135204;27;20024;-63
2021/06/22 08:57:14;;;;;;;7.82;5.50;;;;;;;28.10;49.50;99467.13;5135629;27;20116;-63
2021/06/22 08:59:43;;;;;;;7.30;4.75;;;;;;;27.92;49.16;99461.41;5133506;27;34811;-63
2021/06/22 09:02:08;;;;;;;8.05;5.03;;;;;;;27.63;49.21;99468.00;5135708;27;20039;-64
2021/06/22 09:04:33;;;;;;;7.63;5.05;;;;;;;27.47;49.93;99461.16;5134194;27;40980;-66
2021/06/22 09:06:59;;;;;;;11.35;5.68;;;;;;;27.44;50.43;99464.50;5135969;27;20024;-66
2021/06/22 09:09:34;;;;;;;9.00;5.90;;;;;;;27.43;50.94;99465.63;5134514;27;36262;-64
2021/06/22 09:12:17;;;;;;;9.57;6.40;;;;;;;27.42;50.55;99467.56;5135253;27;20032;-65
2021/06/22 09:14:43;;;;;;;9.35;6.72;;;;;;;27.47;50.96;99472.09;5115867;27;36843;-65
2021/06/22 09:17:08;;;;;;;10.50;6.20;;;;;;;27.46;51.25;99475.94;5135442;27;20038;-66
2021/06/22 09:19:34;;;;;;;12.25;6.25;;;;;;;27.52;51.44;99478.31;5133125;27;30931;-64
2021/06/22 09:22:15;;;;;;;13.45;6.25;;;;;;;27.57;51.08;99482.88;5135459;27;20094;-66
2021/06/22 09:25:09;;;;;;;9.88;5.97;;;;;;;27.63;51.07;99486.34;5134774;27;20078;-70
2021/06/22 09:27:47;;;;;;;12.35;5.90;;;;;;;27.72;51.38;99489.16;5135672;27;20483;-64
2021/06/22 09:30:13;;;;;;;11.52;5.70;;;;;;;27.88;51.56;99495.19;5135255;27;20036;-66
2021/06/22 09:32:38;;;;;;;13.70;6.10;;;;;;;28.15;51.50;99494.41;5133759;27;20028;-68
2021/06/22 09:35:20;;;;;;;9.65;5.85;;;;;;;28.52;51.34;99484.31;5133324;27;38412;-66
2021/06/22 09:37:53;;;;;;;10.50;5.20;;;;;;;29.08;51.56;99493.19;5137224;27;20027;-63
2021/06/22 09:40:28;;;;;;;6.72;5.07;;;;;;;29.89;51.49;99499.69;5138815;27;20032;-74
2021/06/22 09:42:57;;;;;;;9.02;5.05;;;;;;;29.95;47.56;99500.34;5138905;27;20028;-65
2021/06/22 09:45:23;;;;;;;9.27;4.63;;;;;;;30.05;47.69;99500.88;5138838;27;20785;-61
2021/06/22 09:47:49;;;;;;;13.00;5.22;;;;;;;30.02;47.22;99497.97;5138413;27;20023;-66
2021/06/22 09:50:33;;;;;;;8.60;4.90;;;;;;;29.79;46.48;99497.22;5136221;27;20040;-66
2021/06/22 09:53:28;;;;;;;6.35;5.60;;;;;;;29.61;46.03;99494.38;5138430;27;20028;-62
2021/06/22 09:55:53;;;;;;;7.57;5.00;;;;;;;29.53;46.26;99495.16;5138035;27;20409;-68
2021/06/22 09:58:41;;;;;;;12.65;5.43;;;;;;;29.54;47.25;99507.75;5136988;27;20042;-67
2021/06/22 10:01:25;;;;;;;12.40;5.22;;;;;;;29.57;46.60;99507.09;5138364;27;20488;-67
2021/06/22 10:03:51;;;;;;;9.68;5.18;;;;;;;29.49;45.71;99507.88;5138141;27;20106;-65
2021/06/22 10:06:16;;;;;;;13.75;5.43;;;;;;;29.26;46.04;99502.38;5137063;27;20019;-67
2021/06/22 10:08:55;;;;;;;11.13;5.50;;;;;;;29.14;46.15;99505.69;5135969;27;38083;-66
2021/06/22 10:11:35;;;;;;;9.73;5.63;;;;;;;29.10;46.25;99503.84;5136970;27;20602;-65
2021/06/22 10:14:03;;;;;;;;;;;;;;;29.00;46.18;99505.72;5137049;27;20123;-63
2021/06/22 10:16:32;;;;;;;8.95;5.60;;;;;;;28.87;46.24;99503.84;5137728;27;19959;-65
2021/06/22 10:18:58;;;;;;;7.15;5.13;;;;;;;28.66;46.06;99512.50;5137503;27;20118;-67
2021/06/22 10:21:23;;;;;;;6.65;4.95;;;;;;;28.43;46.53;99519.03;5118922;27;20035;-65
2021/06/22 10:23:49;;;;;;;9.93;5.70;;;;;;;28.24;46.69;99522.69;5136078;27;20430;-63
2021/06/22 10:26:15;;;;;;;8.80;5.57;;;;;;;27.96;47.18;99522.66;5136807;27;20090;-69
2021/06/22 10:28:40;;;;;;;9.07;5.45;;;;;;;27.62;47.22;99526.53;5137633;27;20081;-65
2021/06/22 10:31:05;;;;;;;8.10;5.55;;;;;;;27.33;47.99;99511.13;5118717;27;38085;-63
2021/06/22 10:33:31;;;;;;;7.03;5.43;;;;;;;27.10;48.56;99523.00;5137887;27;20057;-66
2021/06/22 10:35:57;;;;;;;11.35;5.60;;;;;;;26.97;49.63;99517.19;5135712;27;20091;-70
2021/06/22 10:38:24;;;;;;;9.05;5.95;;;;;;;27.06;50.85;99519.25;5135913;27;20020;-63
2021/06/22 10:40:54;;;;;;;10.82;5.97;;;;;;;27.22;50.87;99528.81;5135934;27;20115;-61
2021/06/22 10:43:32;;;;;;;10.30;7.13;;;;;;;27.64;51.47;99527.06;5136047;27;20032;-66
2021/06/22 10:46:07;;;;;;;13.20;6.35;;;;;;;27.98;51.41;99531.38;5137559;27;20487;-64
2021/06/22 10:48:40;;;;;;;9.70;5.53;;;;;;;28.67;52.23;99519.63;5137534;27;20039;-66
2021/06/22 10:51:40;;;;;;;8.48;6.28;;;;;;;29.36;50.49;99524.09;5137443;27;20051;-66
2021/06/22 10:54:05;;;;;;;9.95;6.43;;;;;;;29.79;49.90;99522.72;5136690;27;20098;-67
2021/06/22 10:56:31;;;;;;;8.82;6.25;;;;;;;30.22;49.40;99526.78;5118855;27;20027;-68
2021/06/22 10:59:12;;;;;;;9.23;6.38;;;;;;;30.87;49.18;99518.88;5119009;27;20039;-69
2021/06/22 11:01:53;;;;;;;10.10;6.75;;;;;;;31.28;48.31;99514.03;5137894;27;20032;-64
2021/06/22 11:04:18;;;;;;;8.02;6.45;;;;;;;31.35;45.13;99517.88;5135814;27;20122;-65
2021/06/22 11:07:05;;;;;;;9.07;6.85;;;;;;;31.36;45.83;99513.22;5137470;27;20414;-65
2021/06/22 11:09:31;;;;;;;12.57;7.63;;;;;;;31.42;44.55;99511.88;5136210;27;20035;-65
2021/06/22 11:12:24;;;;;;;9.85;8.02;;;;;;;31.08;43.79;99519.03;5137142;27;20020;-64
2021/06/22 11:14:58;;;;;;;10.55;8.07;;;;;;;30.53;42.92;99503.97;5137203;27;20031;-65
2021/06/22 11:17:42;;;;;;;13.45;7.70;;;;;;;30.00;44.09;99509.25;5136863;27;20036;-65
2021/06/22 11:20:18;;;;;;;9.45;7.47;;;;;;;29.56;44.56;99502.75;5136941;27;20591;-64
2021/06/22 11:22:59;;;;;;;10.93;7.30;;;;;;;29.31;46.06;99505.00;5136649;27;20031;-67
2021/06/22 11:25:25;;;;;;;13.45;9.98;;;;;;;29.33;46.74;99504.69;5136890;27;20047;-67
2021/06/22 11:28:03;;;;;;;10.02;8.75;;;;;;;29.65;47.64;99503.59;5136944;27;20024;-73
2021/06/22 11:31:04;;;;;;;8.07;7.28;;;;;;;30.18;47.34;99504.66;5135632;27;20050;-68
2021/06/22 11:33:41;;;;;;;11.73;7.60;;;;;;;30.22;46.38;99499.31;5092321;28;38184;-68
2021/06/22 11:36:19;;;;;;;11.55;7.60;;;;;;;30.38;46.84;99500.50;5131147;27;20035;-68
2021/06/22 11:39:04;;;;;;;9.40;8.20;;;;;;;30.53;46.00;99514.94;5136911;27;20032;-67
2021/06/22 11:41:30;;;;;;;10.73;8.55;;;;;;;30.39;44.97;99518.59;5135178;27;20096;-66
2021/06/22 11:44:24;;;;;;;9.40;7.45;;;;;;;30.30;45.81;99522.47;5136464;27;20076;-64
2021/06/22 11:46:50;;;;;;;8.65;7.72;;;;;;;30.25;45.73;99519.84;5132560;27;20495;-63
2021/06/22 11:49:17;;;;;;;11.00;9.27;;;;;;;30.02;44.95;99522.69;5135863;27;24662;-64
2021/06/22 11:51:51;;;;;;;11.48;8.88;;;;;;;29.77;45.38;99530.47;5136072;27;33984;-64
2021/06/22 11:54:21;;;;;;;11.85;8.25;;;;;;;29.74;46.23;99533.81;5136158;27;20498;-67
2021/06/22 11:56:46;;;;;;;;;;;;;;;29.68;45.52;99530.41;5135237;27;20985;-64
2021/06/22 11:59:12;;;;;;;10.32;8.45;;;;;;;29.51;45.72;99533.03;5135174;27;19915;-63
2021/06/22 12:01:44;;;;;;;10.48;8.20;;;;;;;29.30;45.84;99535.50;5133780;27;39806;-62
2021/06/22 12:04:09;;;;;;;11.85;8.93;;;;;;;29.28;46.71;99532.25;5135938;27;20096;-62
2021/06/22 12:06:34;;;;;;;10.35;7.55;;;;;;;29.25;47.22;99539.16;5134997;27;35503;-65
2021/06/22 12:09:00;;;;;;;11.70;8.55;;;;;;;29.06;46.17;99546.72;5135617;27;20028;-65
2021/06/22 12:11:34;;;;;;;10.18;7.65;;;;;;;28.75;46.41;99547.44;5135808;27;33479;-68
2021/06/22 12:13:59;;;;;;;10.25;7.22;;;;;;;28.44;47.01;99554.31;5135737;27;20015;-64
2021/06/22 12:16:33;;;;;;;9.25;6.15;;;;;;;28.12;46.88;99563.47;5134569;27;20545;-70
2021/06/22 12:19:04;;;;;;;9.35;6.80;;;;;;;27.82;47.86;99554.66;5136022;27;20026;-70
2021/06/22 12:21:30;;;;;;;9.50;6.70;;;;;;;27.50;48.57;99570.81;5136000;27;20035;-67
2021/06/22 12:24:03;;;;;;;8.93;6.78;;;;;;;27.30;48.91;99558.22;5135529;27;20032;-68
2021/06/22 12:26:29;;;;;;;9.55;6.38;;;;;;;27.13;49.80;99549.75;5134427;27;20043;-64
2021/06/22 12:28:54;;;;;;;10.60;6.25;;;;;;;26.97;50.00;99541.78;5135352;27;20020;-65
2021/06/22 12:31:19;;;;;;;10.77;6.15;;;;;;;26.88;50.64;99554.47;5144588;27;39133;-65
2021/06/22 12:33:45;;;;;;;11.00;6.47;;;;;;;26.92;51.68;99560.97;5140082;27;28628;-61
2021/06/22 12:36:14;;;;;;;14.00;6.05;;;;;;;27.13;51.62;99556.03;5147609;27;20475;-66
2021/06/22 12:38:40;;;;;;;13.00;6.18;;;;;;;27.31;51.92;99557.13;5154921;27;20477;-61
2021/06/22 12:41:08;;;;;;;9.15;5.88;;;;;;;27.62;51.92;99551.16;5156172;27;20545;-59
2021/06/22 12:43:42;;;;;;;11.45;5.63;;;;;;;27.87;51.05;99560.03;5156281;27;20035;-61
2021/06/22 12:46:07;;;;;;;10.65;5.88;;;;;;;27.89;50.29;99559.75;5146963;27;20032;-61
2021/06/22 12:48:33;;;;;;;10.88;5.65;;;;;;;27.85;50.06;99554.06;5135828;27;20031;-61
2021/06/22 12:50:58;;;;;;;7.72;5.07;;;;;;;27.75;49.80;99559.69;5133040;27;32113;-61
2021/06/22 12:53:24;;;;;;;9.60;5.72;;;;;;;27.78;49.96;99570.06;5135199;27;27076;-60
2021/06/22 12:55:51;;;;;;;9.38;5.07;;;;;;;27.84;50.20;99579.78;5134323;27;20028;-62
2021/06/22 12:58:16;;;;;;;11.27;5.60;;;;;;;27.78;49.38;99583.75;5135670;27;20027;-61
2021/06/22 13:00:51;;;;;;;9.10;4.63;;;;;;;27.65;49.53;99583.41;5134609;27;37643;-61
2021/06/22 13:03:20;;;;;;;7.90;5.90;;;;;;;27.51;49.56;99577.06;5134329;27;20514;-62
2021/06/22 13:05:50;;;;;;;8.77;5.53;;;;;;;27.34;49.55;99578.41;5135508;27;20032;-60
2021/06/22 13:08:17;;;;;;;6.85;6.10;;;;;;;27.15;49.46;99583.88;5134426;27;20039;-61
2021/06/22 13:10:44;;;;;;;8.90;6.15;;;;;;;27.08;50.00;99590.81;5135921;27;20028;-61
2021/06/22 13:13:10;;;;;;;12.60;6.95;;;;;;;26.94;49.77;99596.19;5139004;27;20019;-61
2021/06/22 13:15:36;;;;;;;7.97;5.85;;;;;;;26.75;50.00;99591.53;5139039;27;20455;-61
2021/06/22 13:18:03;;;;;;;9.13;5.70;;;;;;;26.51;49.88;99610.63;5138851;27;20465;-61
2021/06/22 13:20:31;;;;;;;10.82;6.03;;;;;;;26.28;50.21;99606.78;5138580;27;20427;-61
2021/06/22 13:23:03;;;;;;;7.78;5.95;;;;;;;26.31;51.77;99612.50;5139104;27;20110;-61
2021/06/22 13:25:30;;;;;;;8.32;5.65;;;;;;;26.39;52.02;99612.97;5138878;27;20034;-62
2021/06/22 13:28:07;;;;;;;8.85;6.07;;;;;;;26.46;51.83;99616.16;5138573;27;20173;-62
2021/06/22 13:30:33;;;;;;;7.20;6.28;;;;;;;26.49;52.05;99616.41;5137017;27;20107;-63
2021/06/22 13:32:59;;;;;;;11.68;6.40;;;;;;;26.58;52.34;99610.28;5138597;27;20111;-62
2021/06/22 13:35:30;;;;;;;8.10;6.13;;;;;;;26.57;51.93;99612.19;5138989;27;20028;-66
2021/06/22 13:38:08;;;;;;;9.05;6.53;;;;;;;26.43;51.51;99614.81;5138661;27;20030;-65
2021/06/22 13:40:49;;;;;;;10.40;6.35;;;;;;;26.25;51.63;99612.84;5138780;27;20032;-62
2021/06/22 13:43:43;;;;;;;11.13;7.15;;;;;;;26.05;51.60;99609.19;5137585;27;20035;-63
2021/06/22 13:46:09;;;;;;;8.60;7.30;;;;;;;25.74;51.81;99614.06;5143511;27;20042;-62
2021/06/22 13:48:36;;;;;;;7.35;5.93;;;;;;;25.55;52.48;99613.94;5131961;27;20035;-62
